Main page
METAR-TAF:

METAR-TAF

Airports :

Llano Municipal Airport

Llano, Texas, United States

latitude: 30-47-01N, longitude: 098-39-43W, elevation: 1102 ft

Current weather observation

The report was made 20 minutes ago, at 14:15 UTC
Wind 9 mph from the South/Southwest
Temperature 82°F
Humidity 70%
Pressure 30.03 in. Hg
Visibility: 10 miles
Clear sky

METAR: KAQO 171415Z AUTO 21008KT 10SM CLR 28/22 A3003 RMK AO2

Time: 09:35 (14:35 UTC)


TAF: missing

Weather observations and forecasts of more than 4000 airports (METAR and TAF reports).

The available stations are represented by yellow and red dots on the map.

Hover mouse over dot to see the name of the station.

Then click to see weather observations and forecasts.

To change the map : click on the green buttons with a black cross to zoom in, on the green button with a dash to zoom out, or on the green arrows for adjacent maps.


METAR-TAF: